Time;durP1;ratioP1;P1;durP2;ratioP2;P2;SDS_P1;SDS_P2;PMS_P1;PMS_P2;Temp;Humidity;BMP_temperature;BMP_pressure;BME280_temperature;BME280_humidity;BME280_pressure;Samples;Min_cycle;Max_cycle;Signal;HPM_P1;HPM_P2
2024/01/15 00:01:55;;;;;;;9.57;4.50;;;12.20;62.60;;;;;;7390835;19;19919;-72
2024/01/15 00:04:21;;;;;;;10.45;4.80;;;12.20;63.00;;;;;;7394569;19;19918;-73
2024/01/15 00:06:46;;;;;;;10.05;4.85;;;12.10;64.20;;;;;;7396765;19;19933;-72
2024/01/15 00:09:12;;;;;;;7.57;3.63;;;12.10;64.40;;;;;;7396707;19;19927;-72
2024/01/15 00:11:38;;;;;;;9.65;4.38;;;12.10;64.60;;;;;;7399682;19;19947;-73
2024/01/15 00:14:03;;;;;;;9.63;4.47;;;12.00;64.60;;;;;;7398277;19;19914;-73
2024/01/15 00:16:29;;;;;;;11.65;5.15;;;12.00;65.20;;;;;;7398154;19;19910;-72
2024/01/15 00:18:55;;;;;;;10.10;4.30;;;12.00;65.10;;;;;;7396413;19;19951;-74
2024/01/15 00:21:21;;;;;;;8.30;4.00;;;12.00;65.00;;;;;;7395335;19;19918;-74
2024/01/15 00:23:46;;;;;;;8.80;4.68;;;12.00;65.30;;;;;;7398494;19;19946;-73
2024/01/15 00:26:13;;;;;;;8.15;4.05;;;12.00;64.70;;;;;;7400136;19;19918;-72
2024/01/15 00:28:39;;;;;;;9.75;4.65;;;12.10;64.80;;;;;;7390646;19;19929;-73
2024/01/15 00:31:05;;;;;;;9.60;4.07;;;12.10;65.00;;;;;;7397901;19;19922;-73
2024/01/15 00:33:31;;;;;;;6.68;3.85;;;12.10;64.80;;;;;;7398489;19;19911;-72
2024/01/15 00:35:57;;;;;;;9.18;4.53;;;12.10;64.60;;;;;;7403349;19;20002;-73
2024/01/15 00:38:23;;;;;;;9.45;5.53;;;12.10;64.40;;;;;;7400987;19;19951;-70
2024/01/15 00:40:48;;;;;;;10.43;4.70;;;12.10;64.00;;;;;;7403461;19;20552;-71
2024/01/15 00:43:14;;;;;;;8.80;4.55;;;12.20;64.00;;;;;;7401896;19;19978;-72
2024/01/15 00:45:41;;;;;;;10.57;5.05;;;12.20;64.00;;;;;;7401614;19;19922;-71
2024/01/15 00:48:06;;;;;;;11.88;4.55;;;12.10;63.80;;;;;;7402648;19;19931;-71
2024/01/15 00:50:32;;;;;;;9.18;4.60;;;12.10;65.00;;;;;;7402529;19;19918;-72
2024/01/15 00:52:58;;;;;;;9.05;4.40;;;12.10;64.50;;;;;;7402533;19;19914;-71
2024/01/15 00:55:23;;;;;;;10.48;5.05;;;12.10;64.60;;;;;;7400405;19;19922;-72
2024/01/15 00:57:49;;;;;;;8.90;4.90;;;12.10;65.00;;;;;;7400189;19;19911;-72
2024/01/15 01:00:15;;;;;;;8.45;4.43;;;12.20;64.90;;;;;;7400404;19;19918;-73
2024/01/15 01:02:41;;;;;;;10.00;4.55;;;12.10;65.10;;;;;;7398223;19;19919;-71
2024/01/15 01:05:07;;;;;;;7.95;3.80;;;12.20;64.50;;;;;;7399498;19;20625;-71
2024/01/15 01:07:33;;;;;;;9.02;4.50;;;12.30;64.30;;;;;;7393964;19;19922;-71
2024/01/15 01:09:59;;;;;;;8.35;3.92;;;12.40;63.90;;;;;;7399885;19;20260;-72
2024/01/15 01:12:25;;;;;;;7.75;3.72;;;12.50;63.70;;;;;;7400805;19;19946;-71
2024/01/15 01:14:50;;;;;;;8.13;3.38;;;12.60;62.40;;;;;;7399366;19;19946;-71
2024/01/15 01:17:16;;;;;;;7.90;4.18;;;12.80;61.70;;;;;;7399378;19;19942;-71
2024/01/15 01:19:42;;;;;;;8.43;4.25;;;12.80;61.20;;;;;;7402287;19;19952;-71
2024/01/15 01:22:07;;;;;;;7.43;3.25;;;12.80;61.00;;;;;;7397552;19;19923;-72
2024/01/15 01:24:33;;;;;;;7.97;4.22;;;12.70;61.30;;;;;;7397210;19;19996;-72
2024/01/15 01:26:59;;;;;;;7.00;3.65;;;12.70;61.60;;;;;;7400952;19;19922;-71
2024/01/15 01:29:26;;;;;;;8.18;4.25;;;12.60;62.10;;;;;;7400230;19;19947;-72
2024/01/15 01:31:52;;;;;;;8.18;3.67;;;12.60;62.00;;;;;;7401396;19;19926;-71
2024/01/15 01:34:17;;;;;;;9.05;3.90;;;12.60;62.00;;;;;;7397746;19;19936;-71
2024/01/15 01:36:43;;;;;;;7.47;3.25;;;12.70;61.40;;;;;;7401786;19;19919;-72
2024/01/15 01:39:09;;;;;;;8.55;4.80;;;12.70;60.90;;;;;;7397475;19;20343;-72
2024/01/15 01:41:35;;;;;;;7.15;3.95;;;12.70;60.90;;;;;;7401646;19;19938;-72
2024/01/15 01:44:01;;;;;;;10.18;3.55;;;12.70;60.70;;;;;;7398310;19;19918;-72
2024/01/15 01:46:28;;;;;;;6.85;3.38;;;12.70;60.20;;;;;;7398493;19;19922;-72
2024/01/15 01:48:55;;;;;;;7.95;3.60;;;12.70;59.30;;;;;;7401144;19;19921;-71
2024/01/15 01:51:22;;;;;;;7.18;3.83;;;12.80;58.80;;;;;;7399033;19;20009;-71
2024/01/15 01:53:50;;;;;;;6.43;3.50;;;12.80;58.80;;;;;;7398031;19;19930;-71
2024/01/15 01:56:16;;;;;;;7.13;3.13;;;12.70;59.00;;;;;;7399954;19;19946;-72
2024/01/15 01:58:43;;;;;;;7.68;3.80;;;12.80;58.80;;;;;;7399076;19;19939;-72
2024/01/15 02:01:09;;;;;;;4.95;2.65;;;12.80;57.70;;;;;;7397145;19;19915;-72
2024/01/15 02:03:35;;;;;;;6.15;3.15;;;12.80;57.90;;;;;;7399668;19;19915;-72
2024/01/15 02:06:01;;;;;;;7.30;2.65;;;12.90;57.00;;;;;;7399979;19;19922;-72
2024/01/15 02:08:27;;;;;;;6.30;2.63;;;13.00;56.20;;;;;;7399418;19;19919;-72
2024/01/15 02:10:52;;;;;;;6.05;1.98;;;12.90;56.10;;;;;;7401856;19;19919;-72
2024/01/15 02:13:20;;;;;;;5.85;2.15;;;13.00;55.40;;;;;;7398359;19;19927;-72
2024/01/15 02:15:46;;;;;;;5.32;1.90;;;13.10;54.70;;;;;;7399709;19;19914;-73
2024/01/15 02:18:11;;;;;;;7.55;2.65;;;13.20;54.20;;;;;;7395879;19;20433;-73
2024/01/15 02:20:37;;;;;;;6.05;2.55;;;13.20;53.90;;;;;;7393801;19;19922;-74
2024/01/15 02:23:10;;;;;;;4.97;2.05;;;13.20;54.00;;;;;;7398888;19;20382;-72
2024/01/15 02:25:37;;;;;;;4.88;2.20;;;13.20;54.00;;;;;;7398446;19;19933;-71
2024/01/15 02:28:04;;;;;;;5.05;2.60;;;13.20;54.10;;;;;;7397730;19;20330;-72
2024/01/15 02:30:31;;;;;;;6.47;2.30;;;13.20;54.70;;;;;;7399937;19;19950;-72
2024/01/15 02:32:57;;;;;;;5.43;2.15;;;13.20;54.60;;;;;;7400176;19;20624;-72
2024/01/15 02:35:22;;;;;;;6.15;2.33;;;13.30;54.80;;;;;;7399345;19;19938;-72
2024/01/15 02:37:48;;;;;;;5.55;1.80;;;13.30;54.40;;;;;;7398355;19;19965;-71
2024/01/15 02:40:14;;;;;;;5.28;1.77;;;13.40;54.00;;;;;;7397495;19;19911;-72
2024/01/15 02:42:39;;;;;;;5.85;2.42;;;13.30;54.80;;;;;;7399361;19;19934;-72
2024/01/15 02:45:05;;;;;;;7.43;1.95;;;13.30;55.10;;;;;;7398059;19;19941;-72
2024/01/15 02:47:31;;;;;;;5.40;2.25;;;13.30;54.20;;;;;;7395435;19;20006;-71
2024/01/15 02:49:57;;;;;;;4.47;1.88;;;13.30;53.10;;;;;;7397565;19;19926;-73
2024/01/15 02:52:22;;;;;;;4.53;2.03;;;13.30;53.00;;;;;;7397133;19;20020;-72
2024/01/15 02:54:48;;;;;;;5.40;2.20;;;13.30;52.90;;;;;;7397371;19;19918;-73
2024/01/15 02:57:14;;;;;;;5.00;2.25;;;13.30;52.10;;;;;;7397126;19;20339;-72
2024/01/15 02:59:39;;;;;;;4.95;1.90;;;13.30;50.80;;;;;;7399085;19;19926;-72
2024/01/15 03:02:05;;;;;;;4.35;1.80;;;13.40;50.20;;;;;;7398705;19;20344;-72
2024/01/15 03:04:31;;;;;;;5.15;1.90;;;13.30;49.60;;;;;;7399336;19;19918;-73
2024/01/15 03:06:57;;;;;;;4.50;2.03;;;13.30;49.20;;;;;;7397533;19;19923;-71
2024/01/15 03:09:24;;;;;;;4.07;1.70;;;13.40;49.00;;;;;;7396599;19;20339;-73
2024/01/15 03:11:49;;;;;;;5.10;2.00;;;13.40;48.70;;;;;;7398817;19;19947;-73
2024/01/15 03:14:15;;;;;;;5.82;2.20;;;13.40;48.80;;;;;;7398755;19;19950;-72
2024/01/15 03:16:41;;;;;;;5.85;2.30;;;13.30;49.30;;;;;;7400430;19;20318;-73
2024/01/15 03:19:07;;;;;;;6.28;2.42;;;13.30;49.50;;;;;;7394506;19;20477;-72
2024/01/15 03:21:33;;;;;;;7.22;2.17;;;13.30;49.60;;;;;;7396887;19;19914;-72
2024/01/15 03:23:58;;;;;;;6.40;2.22;;;13.30;49.10;;;;;;7398646;19;19929;-72
2024/01/15 03:26:24;;;;;;;4.43;2.28;;;13.30;48.50;;;;;;7398844;19;19918;-73
2024/01/15 03:28:50;;;;;;;6.65;1.80;;;13.30;49.10;;;;;;7397890;19;19953;-72
2024/01/15 03:31:16;;;;;;;7.70;2.25;;;13.30;49.80;;;;;;7396372;19;19938;-72
2024/01/15 03:33:41;;;;;;;7.30;2.35;;;13.30;50.20;;;;;;7394827;19;19918;-72
2024/01/15 03:36:08;;;;;;;6.28;2.28;;;13.20;50.60;;;;;;7390766;19;20356;-72
2024/01/15 03:38:33;;;;;;;5.32;2.55;;;13.20;51.00;;;;;;7399869;19;19926;-72
2024/01/15 03:40:59;;;;;;;4.53;2.03;;;13.20;51.10;;;;;;7404099;19;20569;-72
2024/01/15 03:43:26;;;;;;;6.95;2.38;;;13.20;51.00;;;;;;7401287;19;19943;-72
2024/01/15 03:45:52;;;;;;;6.93;2.10;;;13.20;51.10;;;;;;7399937;19;20333;-72
2024/01/15 03:48:18;;;;;;;5.07;1.88;;;13.20;50.90;;;;;;7402775;19;19963;-72
2024/01/15 03:50:43;;;;;;;7.35;1.90;;;13.20;50.70;;;;;;7401968;19;19917;-72
2024/01/15 03:53:09;;;;;;;6.75;2.22;;;13.20;50.70;;;;;;7400417;19;19939;-71
2024/01/15 03:55:35;;;;;;;6.88;2.08;;;13.30;50.10;;;;;;7401182;19;19929;-72
2024/01/15 03:58:00;;;;;;;5.63;2.38;;;13.30;50.00;;;;;;7400004;19;20492;-71
2024/01/15 04:00:26;;;;;;;6.78;2.85;;;13.20;51.10;;;;;;7401994;19;19945;-72
2024/01/15 04:02:52;;;;;;;5.50;2.42;;;13.20;53.20;;;;;;7402145;19;19953;-72
2024/01/15 04:05:18;;;;;;;4.95;2.53;;;13.10;54.30;;;;;;7399319;19;20043;-71
2024/01/15 04:07:43;;;;;;;5.57;3.00;;;13.00;55.30;;;;;;7398310;19;20297;-73
2024/01/15 04:10:09;;;;;;;5.70;2.45;;;13.00;57.60;;;;;;7402360;19;19934;-72
2024/01/15 04:12:35;;;;;;;5.07;2.28;;;13.00;59.10;;;;;;7402809;19;19914;-73
2024/01/15 04:15:01;;;;;;;5.68;2.38;;;13.00;60.50;;;;;;7402639;19;19922;-72
2024/01/15 04:17:27;;;;;;;4.68;2.20;;;13.00;61.20;;;;;;7387352;19;20705;-72
2024/01/15 04:19:53;;;;;;;5.05;2.20;;;12.90;61.60;;;;;;7404029;19;19915;-73
2024/01/15 04:22:18;;;;;;;6.20;1.95;;;12.90;61.70;;;;;;7398650;19;20556;-72
2024/01/15 04:24:44;;;;;;;6.03;2.67;;;13.00;61.60;;;;;;7401092;19;19919;-72
2024/01/15 04:27:10;;;;;;;6.15;2.70;;;13.00;60.60;;;;;;7401272;19;19926;-73
2024/01/15 04:29:39;;;;;;;4.75;2.33;;;13.00;60.30;;;;;;7403944;19;19914;-72
2024/01/15 04:32:05;;;;;;;6.25;2.80;;;13.00;59.70;;;;;;7401606;19;20332;-72
2024/01/15 04:34:30;;;;;;;8.27;2.80;;;12.90;59.50;;;;;;7400793;19;19918;-72
2024/01/15 04:36:56;;;;;;;5.65;2.60;;;12.90;60.00;;;;;;7401201;19;19956;-72
2024/01/15 04:39:22;;;;;;;7.28;2.90;;;12.90;59.40;;;;;;7397944;19;19918;-74
2024/01/15 04:41:48;;;;;;;6.32;2.95;;;12.90;59.90;;;;;;7401782;19;19922;-73
2024/01/15 04:44:13;;;;;;;7.25;3.10;;;12.90;60.30;;;;;;7402418;19;20275;-72
2024/01/15 04:46:39;;;;;;;6.72;2.78;;;12.80;61.60;;;;;;7398927;19;19910;-73
2024/01/15 04:49:06;;;;;;;5.95;2.47;;;12.80;62.50;;;;;;7401118;19;19919;-72
2024/01/15 04:51:32;;;;;;;;;;;12.70;63.10;;;;;;7397789;19;19918;-72
2024/01/15 04:53:58;;;;;;;5.88;2.47;;;12.70;63.20;;;;;;7403217;19;19922;-73
2024/01/15 04:56:23;;;;;;;6.90;3.17;;;12.60;63.50;;;;;;7398221;19;20344;-73
2024/01/15 04:58:49;;;;;;;6.25;3.42;;;12.60;64.00;;;;;;7402688;19;19918;-72
2024/01/15 05:01:17;;;;;;;9.38;3.88;;;12.60;64.20;;;;;;7402860;19;19933;-72
2024/01/15 05:03:43;;;;;;;6.22;3.00;;;12.60;64.60;;;;;;7402196;19;20393;-71
2024/01/15 05:06:09;;;;;;;6.97;2.95;;;12.50;66.30;;;;;;7399824;19;19990;-72
2024/01/15 05:08:34;;;;;;;6.65;2.60;;;12.50;67.10;;;;;;7401218;19;19907;-71
2024/01/15 05:11:00;;;;;;;7.45;2.25;;;12.50;67.70;;;;;;7399167;19;19942;-72
2024/01/15 05:13:26;;;;;;;4.50;1.85;;;12.50;68.20;;;;;;7396482;19;19935;-72
2024/01/15 05:15:52;;;;;;;4.55;1.67;;;12.70;68.00;;;;;;7401994;19;19932;-73
2024/01/15 05:18:18;;;;;;;5.22;1.50;;;12.90;67.30;;;;;;7397055;19;19943;-73
2024/01/15 05:20:44;;;;;;;4.85;1.73;;;13.00;66.30;;;;;;7402336;19;19915;-71
2024/01/15 05:23:12;;;;;;;4.50;1.45;;;12.90;66.30;;;;;;7398489;19;19909;-72
2024/01/15 05:25:37;;;;;;;4.07;1.20;;;13.00;66.50;;;;;;7401650;19;20352;-72
2024/01/15 05:28:05;;;;;;;3.60;1.20;;;13.00;65.70;;;;;;7396270;19;19927;-72
2024/01/15 05:30:31;;;;;;;3.65;1.35;;;13.00;65.30;;;;;;7397513;19;19970;-73
2024/01/15 05:32:57;;;;;;;6.57;1.83;;;13.10;64.70;;;;;;7402483;19;20616;-72
2024/01/15 05:35:23;;;;;;;5.60;2.45;;;13.00;65.40;;;;;;7399860;19;20332;-72
2024/01/15 05:37:49;;;;;;;5.72;2.42;;;12.80;65.20;;;;;;7401669;19;19915;-73
2024/01/15 05:40:15;;;;;;;5.28;2.17;;;12.70;65.80;;;;;;7399983;19;20397;-73
2024/01/15 05:42:41;;;;;;;5.50;2.67;;;12.60;66.50;;;;;;7399998;19;19915;-72
2024/01/15 05:45:08;;;;;;;5.13;2.20;;;12.60;67.10;;;;;;7399397;19;19919;-74
2024/01/15 05:47:33;;;;;;;6.05;2.30;;;12.60;67.00;;;;;;7399598;19;19919;-72
2024/01/15 05:50:01;;;;;;;5.28;1.92;;;12.50;67.30;;;;;;7402338;19;19922;-73
2024/01/15 05:52:26;;;;;;;6.18;2.30;;;12.40;68.50;;;;;;7397527;19;19989;-72
2024/01/15 05:54:52;;;;;;;5.85;2.47;;;12.30;68.90;;;;;;7401692;19;19927;-73
2024/01/15 05:57:18;;;;;;;7.55;3.15;;;12.40;69.40;;;;;;7398952;19;19927;-73
2024/01/15 05:59:45;;;;;;;6.20;3.03;;;12.30;69.00;;;;;;7403475;19;19947;-73
2024/01/15 06:02:11;;;;;;;6.80;2.63;;;12.30;69.00;;;;;;7397635;19;19946;-72
2024/01/15 06:04:37;;;;;;;6.53;2.97;;;12.20;69.50;;;;;;7399062;19;19914;-72
2024/01/15 06:07:02;;;;;;;7.88;3.10;;;12.10;70.20;;;;;;7396764;19;19956;-72
2024/01/15 06:09:28;;;;;;;6.68;3.67;;;12.00;71.30;;;;;;7399879;19;20359;-72
2024/01/15 06:11:55;;;;;;;8.15;3.97;;;11.90;72.00;;;;;;7403176;19;19926;-73
2024/01/15 06:14:20;;;;;;;7.82;3.53;;;11.80;73.20;;;;;;7400008;19;20362;-72
2024/01/15 06:16:46;;;;;;;8.15;4.25;;;11.70;75.10;;;;;;7401963;19;19919;-72
2024/01/15 06:19:12;;;;;;;10.07;5.53;;;11.70;75.90;;;;;;7396329;19;20253;-71
2024/01/15 06:21:38;;;;;;;8.48;4.05;;;11.60;75.40;;;;;;7398704;19;19925;-72
2024/01/15 06:24:04;;;;;;;8.13;4.03;;;11.60;76.40;;;;;;7398093;19;19978;-72
2024/01/15 06:26:30;;;;;;;8.55;3.78;;;11.50;76.40;;;;;;7399639;19;19918;-71
2024/01/15 06:28:55;;;;;;;6.72;3.47;;;11.50;77.50;;;;;;7398097;19;19918;-72
2024/01/15 06:31:21;;;;;;;7.53;4.00;;;11.40;77.60;;;;;;7398397;19;20359;-71
2024/01/15 06:33:48;;;;;;;7.03;3.80;;;11.50;77.60;;;;;;7399484;19;20260;-72
2024/01/15 06:36:16;;;;;;;;;;;11.50;78.40;;;;;;7398930;19;19914;-72
2024/01/15 06:38:43;;;;;;;6.65;2.88;;;11.70;77.80;;;;;;7400947;19;19947;-73
2024/01/15 06:41:08;;;;;;;;;;;11.80;77.00;;;;;;7399985;19;19918;-71
2024/01/15 06:43:34;;;;;;;7.70;3.28;;;11.70;76.60;;;;;;7404383;19;19925;-71
2024/01/15 06:46:01;;;;;;;7.18;3.60;;;11.80;77.10;;;;;;7400626;19;19918;-73
2024/01/15 06:48:26;;;;;;;8.30;3.58;;;11.80;76.30;;;;;;7371354;19;19930;-72
2024/01/15 06:50:52;;;;;;;6.70;2.97;;;11.80;76.20;;;;;;7400463;19;19918;-72
2024/01/15 06:53:18;;;;;;;7.82;3.65;;;11.80;76.10;;;;;;7397263;19;19949;-72
2024/01/15 06:55:44;;;;;;;8.27;3.80;;;11.80;76.20;;;;;;7400213;19;19933;-72
2024/01/15 06:58:10;;;;;;;11.02;3.70;;;11.70;76.90;;;;;;7395699;19;19919;-72
2024/01/15 07:00:35;;;;;;;9.52;4.63;;;11.70;77.60;;;;;;7397976;19;20279;-72
2024/01/15 07:03:01;;;;;;;10.38;4.07;;;11.70;77.50;;;;;;7400628;19;19911;-75
2024/01/15 07:05:30;;;;;;;9.60;3.90;;;11.60;78.30;;;;;;7397233;19;19915;-71
2024/01/15 07:07:55;;;;;;;8.50;4.38;;;11.50;78.50;;;;;;7397036;19;19942;-72
2024/01/15 07:10:21;;;;;;;9.63;4.10;;;11.40;79.70;;;;;;7397496;19;19926;-72
2024/01/15 07:12:47;;;;;;;6.60;3.75;;;11.40;80.60;;;;;;7398566;19;19948;-72
2024/01/15 07:15:14;;;;;;;8.10;4.00;;;11.40;80.90;;;;;;7403354;19;19923;-73
2024/01/15 07:17:40;;;;;;;6.50;2.88;;;11.40;80.70;;;;;;7405195;19;19922;-73
2024/01/15 07:20:10;;;;;;;5.60;2.40;;;11.50;80.90;;;;;;7402348;19;19917;-73
2024/01/15 07:22:36;;;;;;;6.50;2.70;;;11.60;79.50;;;;;;7402779;19;20251;-72
2024/01/15 07:25:02;;;;;;;6.22;2.53;;;11.70;80.30;;;;;;7405259;19;19910;-73
2024/01/15 07:27:29;;;;;;;6.90;3.40;;;11.60;80.40;;;;;;7403600;19;19922;-72
2024/01/15 07:29:54;;;;;;;10.02;2.75;;;11.50;80.60;;;;;;7400616;19;19982;-72
2024/01/15 07:32:20;;;;;;;10.23;3.40;;;11.60;80.90;;;;;;7400441;19;19927;-72
2024/01/15 07:34:46;;;;;;;7.72;3.97;;;11.60;80.60;;;;;;7382579;19;20262;-72
2024/01/15 07:37:11;;;;;;;5.25;2.63;;;11.50;81.10;;;;;;7402542;19;20019;-72
2024/01/15 07:39:38;;;;;;;7.68;3.00;;;11.50;81.60;;;;;;7403701;19;19911;-73
2024/01/15 07:42:04;;;;;;;7.82;2.78;;;11.70;80.80;;;;;;7403468;19;19913;-72
2024/01/15 07:44:29;;;;;;;5.07;3.13;;;11.80;80.40;;;;;;7401414;19;19926;-71
2024/01/15 07:46:55;;;;;;;5.05;2.47;;;11.90;79.90;;;;;;7405069;19;20340;-72
2024/01/15 07:49:21;;;;;;;5.30;2.47;;;12.00;79.60;;;;;;7399173;19;19919;-71
2024/01/15 07:51:47;;;;;;;3.97;1.98;;;12.10;79.00;;;;;;7402766;19;19922;-71
2024/01/15 07:54:14;;;;;;;3.97;2.30;;;12.20;78.90;;;;;;7405183;19;20280;-72
2024/01/15 07:56:57;;;;;;;5.13;2.58;;;12.30;78.20;;;;;;7403463;19;20263;-72
2024/01/15 07:59:23;;;;;;;4.93;2.45;;;12.30;78.60;;;;;;7381335;19;19950;-74
2024/01/15 08:01:49;;;;;;;5.70;2.85;;;12.30;78.20;;;;;;7401215;19;20660;-72
2024/01/15 08:04:14;;;;;;;5.75;2.55;;;12.20;78.00;;;;;;7399664;19;19915;-73
2024/01/15 08:06:40;;;;;;;5.57;2.88;;;12.10;78.30;;;;;;7400459;19;19978;-72
2024/01/15 08:09:06;;;;;;;5.97;2.95;;;11.90;79.10;;;;;;7403137;19;19966;-72
2024/01/15 08:11:32;;;;;;;5.95;2.30;;;11.90;79.90;;;;;;7405268;19;19951;-72
2024/01/15 08:13:57;;;;;;;4.85;2.45;;;11.90;79.60;;;;;;7404788;19;19914;-73
2024/01/15 08:16:25;;;;;;;6.40;3.33;;;11.90;79.90;;;;;;7398634;19;19938;-72
2024/01/15 08:18:50;;;;;;;;;;;11.90;80.00;;;;;;7402906;19;20034;-72
2024/01/15 08:21:16;;;;;;;6.95;2.95;;;11.90;80.10;;;;;;7401233;19;19953;-73
2024/01/15 08:23:42;;;;;;;6.68;3.30;;;11.80;80.40;;;;;;7401143;19;19919;-72
2024/01/15 08:26:08;;;;;;;7.88;3.75;;;11.90;80.10;;;;;;7399996;19;19923;-73
2024/01/15 08:28:34;;;;;;;7.28;3.70;;;11.70;79.90;;;;;;7404085;19;19915;-73
2024/01/15 08:31:00;;;;;;;6.95;3.33;;;11.80;80.50;;;;;;7403109;19;19915;-72
2024/01/15 08:33:26;;;;;;;7.97;3.55;;;11.80;79.40;;;;;;7401922;19;19982;-72
2024/01/15 08:35:52;;;;;;;8.55;3.88;;;11.80;80.00;;;;;;7396312;19;19910;-72
2024/01/15 08:38:19;;;;;;;8.77;3.50;;;11.80;79.00;;;;;;7384978;19;19922;-73
2024/01/15 08:40:44;;;;;;;6.93;3.33;;;11.90;77.30;;;;;;7384850;19;20343;-72
2024/01/15 08:43:10;;;;;;;6.57;3.30;;;11.80;77.70;;;;;;7389909;19;19918;-71
2024/01/15 08:45:36;;;;;;;6.72;3.40;;;11.80;78.50;;;;;;7385720;19;19914;-72
2024/01/15 08:48:02;;;;;;;7.55;3.35;;;11.70;79.80;;;;;;7402057;19;19918;-72
2024/01/15 08:50:29;;;;;;;5.15;2.30;;;11.80;79.80;;;;;;7390656;19;20496;-72
2024/01/15 08:52:55;;;;;;;6.00;2.55;;;11.90;79.40;;;;;;7388660;19;20012;-72
2024/01/15 08:55:22;;;;;;;4.75;2.35;;;12.00;80.10;;;;;;7401440;19;20233;-72
2024/01/15 08:57:49;;;;;;;5.40;2.25;;;12.10;79.20;;;;;;7400605;19;19928;-74
2024/01/15 09:00:15;;;;;;;5.10;2.50;;;12.30;79.10;;;;;;7402030;19;19918;-72
2024/01/15 09:02:42;;;;;;;5.72;2.40;;;12.30;78.10;;;;;;7401355;19;19922;-73
2024/01/15 09:05:08;;;;;;;5.38;2.88;;;12.40;78.40;;;;;;7401662;19;19931;-73
2024/01/15 09:07:34;;;;;;;6.47;3.65;;;12.50;78.10;;;;;;7399109;19;20313;-72
2024/01/15 09:09:59;;;;;;;5.55;2.83;;;12.50;76.80;;;;;;7403027;19;19918;-72
2024/01/15 09:12:26;;;;;;;5.78;1.92;;;12.60;76.50;;;;;;7380252;19;19958;-72
2024/01/15 09:14:53;;;;;;;4.97;2.08;;;12.60;78.60;;;;;;7390450;19;19925;-73
2024/01/15 09:17:19;;;;;;;4.97;2.65;;;12.80;75.90;;;;;;7394274;19;19922;-73
2024/01/15 09:19:45;;;;;;;5.97;2.50;;;12.90;75.00;;;;;;7401141;19;19919;-72
2024/01/15 09:22:14;;;;;;;4.70;1.67;;;13.00;74.90;;;;;;7396709;19;20435;-73
2024/01/15 09:24:41;;;;;;;4.75;2.38;;;13.20;73.90;;;;;;7395230;19;19919;-72
2024/01/15 09:27:07;;;;;;;4.65;2.10;;;13.30;73.50;;;;;;7371540;19;19978;-72
2024/01/15 09:29:33;;;;;;;3.85;1.70;;;13.30;72.40;;;;;;7398395;19;19914;-72
2024/01/15 09:31:59;;;;;;;3.70;1.70;;;13.40;71.70;;;;;;7364420;19;19922;-72
2024/01/15 09:34:25;;;;;;;4.85;2.10;;;13.60;71.30;;;;;;7390846;19;20246;-73
2024/01/15 09:36:50;;;;;;;4.68;1.98;;;13.60;70.30;;;;;;7391090;19;19911;-72
2024/01/15 09:39:16;;;;;;;3.90;1.85;;;13.50;70.10;;;;;;7394697;19;19922;-72
2024/01/15 09:41:43;;;;;;;5.43;1.92;;;13.50;71.50;;;;;;7394637;19;20478;-73
2024/01/15 09:44:10;;;;;;;4.07;1.60;;;13.60;70.30;;;;;;7395996;19;19926;-73
2024/01/15 09:46:36;;;;;;;2.90;1.35;;;13.80;69.60;;;;;;7395087;19;19923;-73
2024/01/15 09:49:02;;;;;;;3.20;1.40;;;14.00;69.40;;;;;;7390512;19;19915;-72
2024/01/15 09:51:32;;;;;;;3.83;1.70;;;14.00;68.00;;;;;;7398180;19;19918;-72
2024/01/15 09:53:58;;;;;;;4.82;1.55;;;14.20;66.20;;;;;;7399381;19;19921;-72
2024/01/15 09:56:24;;;;;;;3.58;1.48;;;14.30;65.80;;;;;;7389527;19;21532;-73
2024/01/15 09:58:53;;;;;;;3.95;1.70;;;14.10;66.00;;;;;;7397080;19;20787;-72
2024/01/15 10:01:23;;;;;;;4.30;1.83;;;14.00;66.30;;;;;;7372923;19;19933;-73
2024/01/15 10:03:49;;;;;;;4.68;2.40;;;14.20;65.90;;;;;;7393701;19;19956;-73
2024/01/15 10:06:19;;;;;;;3.90;1.80;;;13.90;66.90;;;;;;7384584;19;19922;-72
2024/01/15 10:11:20;;;;;;;6.63;2.53;;;13.60;69.30;;;;;;7327830;19;19918;-73
2024/01/15 10:16:23;;;;;;;6.03;2.00;;;13.50;71.10;;;;;;7320666;19;19930;-72
2024/01/15 10:21:26;;;;;;;4.90;2.05;;;13.50;71.00;;;;;;7330315;19;20034;-67
2024/01/15 10:29:50;;;;;;;6.45;2.55;;;13.60;69.70;;;;;;7223042;19;3175938;-67
2024/01/15 10:32:15;;;;;;;4.55;2.92;;;13.50;70.70;;;;;;7419001;19;19932;-67
2024/01/15 10:34:42;;;;;;;5.40;2.65;;;13.60;71.20;;;;;;7428211;19;19918;-68
2024/01/15 10:37:08;;;;;;;6.10;2.95;;;13.70;70.80;;;;;;7411291;19;19964;-68
2024/01/15 10:39:35;;;;;;;5.35;2.53;;;13.70;69.60;;;;;;7417567;19;19922;-68
2024/01/15 10:42:01;;;;;;;5.60;2.65;;;13.80;69.30;;;;;;7431891;19;19982;-70
2024/01/15 10:44:27;;;;;;;4.10;2.35;;;14.00;69.00;;;;;;7416231;19;19957;-70
2024/01/15 10:48:04;;;;;;;3.97;1.80;;;14.20;67.00;;;;;;7370278;19;20847;-71
2024/01/15 10:53:09;;;;;;;4.75;1.98;;;14.30;66.80;;;;;;7296403;19;19962;-72
2024/01/15 10:55:42;;;;;;;4.10;1.90;;;14.30;66.70;;;;;;7414908;19;19955;-74
2024/01/15 10:58:08;;;;;;;4.80;2.00;;;14.40;66.00;;;;;;7429865;19;20303;-76
2024/01/15 11:00:37;;;;;;;6.57;2.00;;;14.60;67.10;;;;;;7431823;19;19935;-77
2024/01/15 11:03:05;;;;;;;3.00;1.27;;;14.60;64.40;;;;;;7401182;19;19918;-75
2024/01/15 11:05:41;;;;;;;3.70;1.55;;;14.50;64.90;;;;;;7413006;19;19918;-77
2024/01/15 11:08:07;;;;;;;2.78;1.17;;;14.40;65.10;;;;;;7401912;19;19918;-73
2024/01/15 11:10:40;;;;;;;4.68;1.75;;;14.50;64.50;;;;;;7413203;19;20349;-73
2024/01/15 11:13:08;;;;;;;3.40;1.10;;;14.60;64.40;;;;;;7418255;19;20029;-72
2024/01/15 11:16:12;;;;;;;3.78;2.15;;;14.80;62.80;;;;;;7385955;19;20343;-71
2024/01/15 11:18:41;;;;;;;4.80;2.75;;;14.80;63.40;;;;;;7423522;19;19946;-72
2024/01/15 11:21:16;;;;;;;3.80;2.20;;;14.90;62.20;;;;;;7422390;19;20025;-74
2024/01/15 11:23:46;;;;;;;3.90;2.05;;;14.80;62.80;;;;;;7401819;19;19990;-72
2024/01/15 11:26:36;;;;;;;4.25;2.22;;;14.90;61.20;;;;;;7389097;19;20025;-73
2024/01/15 11:29:05;;;;;;;6.20;2.80;;;15.20;60.20;;;;;;7396704;19;19918;-72
2024/01/15 11:31:40;;;;;;;5.10;2.50;;;15.30;58.70;;;;;;7410404;19;19925;-72
2024/01/15 11:34:07;;;;;;;4.15;2.30;;;15.30;57.90;;;;;;7418932;19;20021;-74
2024/01/15 11:36:48;;;;;;;6.72;2.25;;;15.40;56.40;;;;;;7415814;19;19917;-74
2024/01/15 11:39:46;;;;;;;5.20;2.92;;;15.70;54.60;;;;;;7410378;19;19915;-73
2024/01/15 11:42:13;;;;;;;3.63;1.80;;;16.00;52.20;;;;;;7421035;19;19925;-73
2024/01/15 11:44:39;;;;;;;4.70;2.10;;;15.80;52.30;;;;;;7427235;19;20320;-73
2024/01/15 11:47:09;;;;;;;3.47;1.65;;;16.10;51.80;;;;;;7422559;19;20319;-73
2024/01/15 11:49:56;;;;;;;4.32;1.83;;;16.10;50.70;;;;;;7418895;19;19918;-74
2024/01/15 11:52:23;;;;;;;4.00;1.48;;;16.00;51.30;;;;;;7413719;19;20004;-73
2024/01/15 11:55:25;;;;;;;7.00;2.70;;;15.70;52.80;;;;;;7415603;19;19922;-72
2024/01/15 11:57:55;;;;;;;4.10;1.58;;;16.00;51.60;;;;;;7426914;19;19935;-73
2024/01/15 12:00:24;;;;;;;3.78;1.90;;;16.20;50.30;;;;;;7418556;19;20072;-74
2024/01/15 12:02:53;;;;;;;4.13;2.22;;;16.30;49.10;;;;;;7411723;19;22151;-73
2024/01/15 12:05:21;;;;;;;2.75;1.55;;;16.50;49.30;;;;;;7424611;19;19922;-75
2024/01/15 12:07:48;;;;;;;4.93;2.92;;;17.60;44.00;;;;;;7423959;19;19918;-73
2024/01/15 12:10:21;;;;;;;3.15;1.80;;;18.60;37.40;;;;;;7417228;19;19931;-73
2024/01/15 12:12:59;;;;;;;4.10;2.35;;;18.00;37.80;;;;;;7413030;19;20323;-74
2024/01/15 12:15:26;;;;;;;4.65;2.50;;;17.90;42.40;;;;;;7416417;19;20334;-73
2024/01/15 12:17:54;;;;;;;4.72;3.22;;;18.50;37.40;;;;;;7423068;19;19918;-73
2024/01/15 12:20:20;;;;;;;4.72;3.00;;;18.30;36.50;;;;;;7422584;19;19919;-73
2024/01/15 12:22:46;;;;;;;4.07;2.50;;;18.10;37.20;;;;;;7428673;19;19930;-73
2024/01/15 12:25:11;;;;;;;4.80;2.13;;;18.10;38.30;;;;;;7421683;19;19925;-73
2024/01/15 12:27:37;;;;;;;3.65;1.95;;;19.00;35.00;;;;;;7390606;19;20743;-74
2024/01/15 12:30:04;;;;;;;3.90;2.42;;;19.60;31.20;;;;;;7393250;19;20253;-73
2024/01/15 12:32:30;;;;;;;4.38;3.00;;;20.10;29.60;;;;;;7392781;19;19923;-72
2024/01/15 12:34:55;;;;;;;3.75;2.90;;;19.40;29.60;;;;;;7396104;19;19911;-73
2024/01/15 12:37:21;;;;;;;4.45;2.92;;;20.30;29.10;;;;;;7401404;19;19914;-73
2024/01/15 12:39:48;;;;;;;4.85;2.55;;;19.60;30.10;;;;;;7399984;19;20315;-72
2024/01/15 12:42:16;;;;;;;;;;;19.40;31.10;;;;;;7393158;19;20028;-74
2024/01/15 12:44:44;;;;;;;4.00;2.60;;;18.50;34.70;;;;;;7398059;19;21082;-75
2024/01/15 12:47:10;;;;;;;4.75;2.40;;;18.30;37.00;;;;;;7394226;19;19922;-76
2024/01/15 12:49:37;;;;;;;4.57;2.47;;;18.40;37.40;;;;;;7402549;19;20991;-75
2024/01/15 12:52:04;;;;;;;4.78;2.80;;;17.90;40.40;;;;;;7396732;19;19911;-73
2024/01/15 12:54:29;;;;;;;4.07;2.33;;;17.70;41.90;;;;;;7397358;19;19915;-73
2024/01/15 12:56:55;;;;;;;3.63;1.77;;;17.70;41.90;;;;;;7396578;19;19911;-73
2024/01/15 12:59:21;;;;;;;6.15;2.63;;;17.60;42.50;;;;;;7398973;19;19918;-73
2024/01/15 13:01:47;;;;;;;4.32;2.28;;;17.50;42.90;;;;;;7397629;19;19982;-73
2024/01/15 13:04:24;;;;;;;6.25;2.35;;;17.50;42.90;;;;;;7402647;19;19923;-74